Time;durP1;ratioP1;P1;durP2;ratioP2;P2;SDS_P1;SDS_P2;PMS_P1;PMS_P2;Temp;Humidity;BMP_temperature;BMP_pressure;BME280_temperature;BME280_humidity;BME280_pressure;Samples;Min_cycle;Max_cycle;Signal;HPM_P1;HPM_P2
2021/04/12 00:01:57;;;;;;;0.43;0.43;;;8.40;99.90;;;;;;5048003;28;20042;-73
2021/04/12 00:05:06;;;;;;;0.88;0.47;;;8.30;99.90;;;;;;5050226;28;20021;-73
2021/04/12 00:07:39;;;;;;;0.50;0.50;;;8.30;99.90;;;;;;5056931;28;20124;-73
2021/04/12 00:10:15;;;;;;;0.30;0.30;;;8.30;99.90;;;;;;5049632;28;20078;-73
2021/04/12 00:13:04;;;;;;;0.22;0.22;;;8.20;99.90;;;;;;5049454;28;20465;-73
2021/04/12 00:15:55;;;;;;;0.50;0.50;;;8.30;99.90;;;;;;5050184;28;20379;-73
2021/04/12 00:18:37;;;;;;;0.40;0.40;;;8.20;99.90;;;;;;5048343;28;20033;-73
2021/04/12 00:21:20;;;;;;;0.38;0.38;;;8.20;99.90;;;;;;5048730;28;20510;-73
2021/04/12 00:23:50;;;;;;;0.50;0.40;;;8.20;99.90;;;;;;5049666;28;20075;-73
2021/04/12 00:26:26;;;;;;;0.30;0.30;;;8.10;99.90;;;;;;5049409;28;20510;-75
2021/04/12 00:29:35;;;;;;;0.30;0.30;;;8.00;99.90;;;;;;5027437;28;20461;-75
2021/04/12 00:32:18;;;;;;;0.65;0.30;;;8.00;99.90;;;;;;5048077;28;20037;-74
2021/04/12 00:34:50;;;;;;;0.50;0.45;;;7.90;99.90;;;;;;5047905;28;20048;-75
2021/04/12 00:37:42;;;;;;;0.50;0.50;;;7.80;99.90;;;;;;5049344;28;20100;-75
2021/04/12 00:40:29;;;;;;;0.47;0.47;;;7.70;99.90;;;;;;5057132;28;20106;-74
2021/04/12 00:43:16;;;;;;;0.47;0.47;;;7.70;99.90;;;;;;5047801;28;20033;-73
2021/04/12 00:45:50;;;;;;;0.50;0.45;;;7.70;99.90;;;;;;5048735;28;20029;-76
2021/04/12 00:48:21;;;;;;;0.50;0.50;;;7.60;99.90;;;;;;5047455;28;20395;-73
2021/04/12 00:50:55;;;;;;;0.60;0.60;;;7.60;99.90;;;;;;5046311;28;20025;-73
2021/04/12 00:53:42;;;;;;;0.60;0.60;;;7.60;99.90;;;;;;5040288;28;20170;-73
2021/04/12 00:56:19;;;;;;;0.63;0.63;;;7.50;99.90;;;;;;5048336;28;20056;-73
2021/04/12 00:59:00;;;;;;;1.73;0.80;;;7.50;99.90;;;;;;5045738;28;20108;-73
2021/04/12 01:01:36;;;;;;;0.60;0.60;;;7.50;99.90;;;;;;5045221;28;20017;-76
2021/04/12 01:04:12;;;;;;;0.60;0.60;;;7.50;99.90;;;;;;5047590;28;20132;-73
2021/04/12 01:07:02;;;;;;;0.50;0.50;;;7.40;99.90;;;;;;5046330;28;20083;-73
2021/04/12 01:09:46;;;;;;;0.80;0.70;;;7.40;99.90;;;;;;5049435;28;20090;-74
2021/04/12 01:12:57;;;;;;;0.60;0.60;;;7.30;99.90;;;;;;5047413;28;20033;-73
2021/04/12 01:15:54;;;;;;;0.50;0.50;;;7.10;99.90;;;;;;5048696;28;20112;-73
2021/04/12 01:18:38;;;;;;;0.60;0.60;;;7.00;99.90;;;;;;5047032;28;20016;-73
2021/04/12 01:21:22;;;;;;;0.88;0.52;;;6.90;99.90;;;;;;5055076;28;20037;-74
2021/04/12 01:24:15;;;;;;;0.70;0.70;;;6.90;99.90;;;;;;5049468;28;20017;-74
2021/04/12 01:27:17;;;;;;;1.02;0.85;;;6.80;99.90;;;;;;5047716;28;20021;-76
2021/04/12 01:30:31;;;;;;;1.00;1.00;;;6.80;99.90;;;;;;5048707;28;20083;-74
2021/04/12 01:33:34;;;;;;;1.08;0.98;;;6.70;99.90;;;;;;5051227;28;20037;-75
2021/04/12 01:36:17;;;;;;;1.05;0.95;;;6.60;99.90;;;;;;5051766;28;20029;-74
2021/04/12 01:39:06;;;;;;;1.02;0.88;;;6.50;99.90;;;;;;5052144;28;20025;-74
2021/04/12 01:42:10;;;;;;;0.88;0.88;;;6.30;99.90;;;;;;5052083;28;20041;-74
2021/04/12 01:44:52;;;;;;;0.75;0.70;;;6.30;99.90;;;;;;5039193;28;20033;-74
2021/04/12 01:47:46;;;;;;;0.95;0.85;;;6.20;99.90;;;;;;5049439;28;20025;-75
2021/04/12 01:50:14;;;;;;;0.57;0.57;;;6.20;99.90;;;;;;5053070;28;20126;-74
2021/04/12 01:53:04;;;;;;;0.70;0.70;;;6.10;99.90;;;;;;5052236;28;20464;-74
2021/04/12 01:55:52;;;;;;;1.13;0.70;;;6.10;99.90;;;;;;5048766;28;20021;-74
2021/04/12 01:58:44;;;;;;;1.98;0.55;;;6.10;99.90;;;;;;5050260;28;20032;-76
2021/04/12 02:01:28;;;;;;;0.73;0.73;;;6.00;99.90;;;;;;5051899;28;20048;-74
2021/04/12 02:04:12;;;;;;;0.80;0.80;;;6.00;99.90;;;;;;5050591;28;20028;-74
2021/04/12 02:06:44;;;;;;;0.75;0.70;;;6.00;99.90;;;;;;5050101;28;20029;-75
2021/04/12 02:09:31;;;;;;;0.80;0.60;;;5.90;99.90;;;;;;5049824;28;20048;-74
2021/04/12 02:12:27;;;;;;;0.68;0.57;;;5.90;99.90;;;;;;5057702;28;20033;-74
2021/04/12 02:15:05;;;;;;;0.80;0.47;;;5.90;99.90;;;;;;5048847;28;20427;-74
2021/04/12 02:18:03;;;;;;;0.40;0.40;;;5.80;99.90;;;;;;5049161;28;20021;-74
2021/04/12 02:20:38;;;;;;;0.40;0.40;;;5.80;99.90;;;;;;5047787;28;20025;-74
2021/04/12 02:23:30;;;;;;;0.50;0.30;;;5.80;99.90;;;;;;5050886;28;20610;-73
2021/04/12 02:26:28;;;;;;;0.40;0.40;;;5.70;99.90;;;;;;5050005;28;20086;-74
2021/04/12 02:29:09;;;;;;;0.30;0.30;;;5.70;99.90;;;;;;5017759;28;20593;-74
2021/04/12 02:31:38;;;;;;;1.02;0.50;;;5.60;99.90;;;;;;5050883;28;20033;-75
2021/04/12 02:34:25;;;;;;;0.40;0.40;;;5.50;99.90;;;;;;5050722;28;20041;-74
2021/04/12 02:37:15;;;;;;;0.40;0.40;;;5.50;99.90;;;;;;5048569;28;20021;-74
2021/04/12 02:40:05;;;;;;;0.55;0.40;;;5.50;99.90;;;;;;5050705;28;20021;-74
2021/04/12 02:43:00;;;;;;;0.60;0.28;;;5.40;99.90;;;;;;5048132;28;20626;-74
2021/04/12 02:46:03;;;;;;;0.63;0.43;;;5.40;99.90;;;;;;5051215;28;20039;-75
2021/04/12 02:48:37;;;;;;;0.40;0.30;;;5.30;99.90;;;;;;5051531;28;20375;-74
2021/04/12 02:51:06;;;;;;;0.47;0.43;;;5.20;99.90;;;;;;5050259;28;20032;-73
2021/04/12 02:53:41;;;;;;;0.38;0.32;;;5.20;99.90;;;;;;5046195;28;20021;-74
2021/04/12 02:56:31;;;;;;;0.57;0.57;;;5.20;99.90;;;;;;5050999;28;20029;-75
2021/04/12 02:59:16;;;;;;;1.13;0.30;;;5.20;99.90;;;;;;5049752;28;20082;-74
2021/04/12 03:02:09;;;;;;;0.50;0.40;;;5.20;99.90;;;;;;5048427;28;20025;-74
2021/04/12 03:05:08;;;;;;;0.52;0.40;;;5.20;99.90;;;;;;5049427;28;20052;-75
2021/04/12 03:08:15;;;;;;;0.57;0.57;;;5.20;99.90;;;;;;5049538;28;20021;-76
2021/04/12 03:11:05;;;;;;;0.30;0.30;;;5.20;99.90;;;;;;5048570;28;20040;-74
2021/04/12 03:13:49;;;;;;;0.60;0.60;;;5.10;99.90;;;;;;5048834;28;20029;-74
2021/04/12 03:16:33;;;;;;;2.78;0.50;;;5.10;99.90;;;;;;5048291;28;20123;-73
2021/04/12 03:19:22;;;;;;;0.40;0.40;;;5.10;99.90;;;;;;5048449;28;20033;-73
2021/04/12 03:22:08;;;;;;;0.95;0.55;;;5.10;99.90;;;;;;5048798;28;20055;-74
2021/04/12 03:25:05;;;;;;;0.77;0.60;;;5.10;99.90;;;;;;5051065;28;20029;-75
2021/04/12 03:28:00;;;;;;;0.50;0.50;;;5.10;99.90;;;;;;5046973;28;20104;-73
2021/04/12 03:30:54;;;;;;;0.55;0.50;;;5.10;99.90;;;;;;5014486;28;20603;-73
2021/04/12 03:33:23;;;;;;;0.68;0.60;;;5.10;99.90;;;;;;5047870;28;20029;-74
2021/04/12 03:36:09;;;;;;;0.63;0.63;;;5.10;99.90;;;;;;5050143;28;20105;-73
2021/04/12 03:39:02;;;;;;;0.63;0.57;;;5.10;99.90;;;;;;5050394;28;20464;-76
2021/04/12 03:41:52;;;;;;;0.50;0.50;;;5.10;99.90;;;;;;5049606;28;20029;-74
2021/04/12 03:44:59;;;;;;;0.57;0.57;;;5.00;99.90;;;;;;5048947;28;20021;-74
2021/04/12 03:47:45;;;;;;;0.40;0.40;;;4.90;99.90;;;;;;5034938;28;20431;-74
2021/04/12 03:50:24;;;;;;;0.50;0.50;;;4.90;99.90;;;;;;5049281;28;20482;-74
2021/04/12 03:53:09;;;;;;;0.40;0.40;;;4.80;99.90;;;;;;5048602;28;20465;-74
2021/04/12 03:55:51;;;;;;;0.82;0.50;;;4.80;99.90;;;;;;5049924;28;20071;-75
2021/04/12 03:58:54;;;;;;;0.47;0.47;;;4.80;99.90;;;;;;5048220;28;20017;-74
2021/04/12 04:01:29;;;;;;;0.65;0.55;;;4.70;99.90;;;;;;5049516;28;20505;-74
2021/04/12 04:04:00;;;;;;;0.40;0.40;;;4.70;99.90;;;;;;5049702;28;20031;-75
2021/04/12 04:06:49;;;;;;;0.88;0.80;;;4.60;99.90;;;;;;5047858;28;20384;-75
2021/04/12 04:09:24;;;;;;;0.38;0.38;;;4.60;99.90;;;;;;5049954;28;20021;-74
2021/04/12 04:12:29;;;;;;;0.35;0.35;;;4.50;99.90;;;;;;5048869;28;20029;-74
2021/04/12 04:15:31;;;;;;;0.50;0.40;;;4.50;99.90;;;;;;5047381;28;20070;-75
2021/04/12 04:18:02;;;;;;;0.50;0.40;;;4.40;99.90;;;;;;5044501;28;20144;-75
2021/04/12 04:20:49;;;;;;;0.45;0.45;;;4.40;99.90;;;;;;5042431;28;20112;-74
2021/04/12 04:23:21;;;;;;;0.40;0.40;;;4.40;99.90;;;;;;5047781;28;20594;-75
2021/04/12 04:26:30;;;;;;;0.50;0.40;;;4.30;99.90;;;;;;5049073;28;20041;-75
2021/04/12 04:29:22;;;;;;;0.85;0.68;;;4.30;99.90;;;;;;5049512;28;20036;-75
2021/04/12 04:32:13;;;;;;;0.32;0.32;;;4.30;99.90;;;;;;5048515;28;20043;-75
2021/04/12 04:34:47;;;;;;;0.50;0.50;;;4.30;99.90;;;;;;5045799;28;20028;-75
2021/04/12 04:37:24;;;;;;;0.60;0.60;;;4.30;99.90;;;;;;5045866;28;20418;-75
2021/04/12 04:39:55;;;;;;;0.50;0.40;;;4.30;99.90;;;;;;5047659;28;20028;-75
2021/04/12 04:42:49;;;;;;;0.47;0.47;;;4.20;99.90;;;;;;5048796;28;20021;-75
2021/04/12 04:45:51;;;;;;;0.90;0.60;;;4.20;99.90;;;;;;5049348;28;20056;-76
2021/04/12 04:48:52;;;;;;;0.47;0.32;;;4.10;99.90;;;;;;5041412;28;20131;-75
2021/04/12 04:51:51;;;;;;;0.60;0.60;;;4.10;99.90;;;;;;5026068;28;20040;-76
2021/04/12 04:54:36;;;;;;;0.77;0.50;;;4.00;99.90;;;;;;5047645;28;20032;-75
2021/04/12 04:57:07;;;;;;;0.88;0.60;;;4.00;99.90;;;;;;5045226;28;20039;-76
2021/04/12 05:00:10;;;;;;;0.70;0.70;;;4.00;99.90;;;;;;5048570;28;20025;-76
2021/04/12 05:03:00;;;;;;;0.68;0.60;;;3.90;99.90;;;;;;5044767;28;20384;-76
2021/04/12 05:05:54;;;;;;;1.27;0.60;;;3.90;99.90;;;;;;5052312;28;20782;-76
2021/04/12 05:09:00;;;;;;;0.40;0.40;;;3.90;99.90;;;;;;5052035;28;20712;-76
2021/04/12 05:11:25;;;;;;;0.73;0.73;;;3.90;99.90;;;;;;5053934;28;20032;-76
2021/04/12 05:14:01;;;;;;;1.05;0.95;;;3.90;99.90;;;;;;5052954;28;20098;-76
2021/04/12 05:16:53;;;;;;;;;;;3.90;99.90;;;;;;5052945;28;20078;-75
2021/04/12 05:19:27;;;;;;;1.27;0.90;;;3.90;99.90;;;;;;5057885;28;19913;-76
2021/04/12 05:22:17;;;;;;;1.42;1.20;;;3.90;99.90;;;;;;5052280;28;20033;-75
2021/04/12 05:25:23;;;;;;;1.73;1.35;;;3.90;99.90;;;;;;5033265;28;20115;-76
2021/04/12 05:27:58;;;;;;;;;;;3.90;99.90;;;;;;5048134;28;20498;-76
2021/04/12 05:30:49;;;;;;;1.20;0.80;;;3.90;99.90;;;;;;5052284;28;20373;-76
2021/04/12 05:33:29;;;;;;;4.72;1.40;;;3.90;99.90;;;;;;5051015;28;20025;-76
2021/04/12 05:36:33;;;;;;;2.10;1.08;;;3.90;99.90;;;;;;5061618;28;20113;-76
2021/04/12 05:39:26;;;;;;;0.98;0.85;;;3.80;99.90;;;;;;5047576;28;20131;-76
2021/04/12 05:42:08;;;;;;;1.10;1.00;;;3.90;99.90;;;;;;5056314;28;20031;-76
2021/04/12 05:45:08;;;;;;;1.70;1.02;;;3.90;99.90;;;;;;5046428;28;20381;-76
2021/04/12 05:48:11;;;;;;;1.58;1.30;;;3.90;99.90;;;;;;5057325;28;20638;-76
2021/04/12 05:50:58;;;;;;;1.40;1.05;;;4.00;99.90;;;;;;5050138;28;20541;-76
2021/04/12 05:53:53;;;;;;;1.27;1.05;;;4.00;99.90;;;;;;5032748;28;20029;-76
2021/04/12 05:56:39;;;;;;;2.40;1.40;;;4.00;99.90;;;;;;5051066;28;20108;-76
2021/04/12 05:59:30;;;;;;;2.13;1.42;;;4.00;99.90;;;;;;5051609;28;20028;-75
2021/04/12 06:02:17;;;;;;;1.08;0.98;;;4.10;99.90;;;;;;5050105;28;20025;-76
2021/04/12 06:04:57;;;;;;;1.35;1.17;;;4.00;99.90;;;;;;5052103;28;20029;-76
2021/04/12 06:07:47;;;;;;;1.20;1.10;;;4.00;99.90;;;;;;5051514;28;20214;-76
2021/04/12 06:10:13;;;;;;;1.10;1.00;;;4.00;99.90;;;;;;5052690;28;20085;-75
2021/04/12 06:12:53;;;;;;;1.50;1.30;;;4.00;99.90;;;;;;5050768;28;20029;-76
2021/04/12 06:15:44;;;;;;;1.45;1.13;;;4.00;99.90;;;;;;5056086;28;20158;-76
2021/04/12 06:18:48;;;;;;;1.77;1.40;;;4.00;99.90;;;;;;5052588;28;20029;-76
2021/04/12 06:21:50;;;;;;;1.98;1.70;;;4.00;99.90;;;;;;4997583;28;20039;-76
2021/04/12 06:24:28;;;;;;;1.88;1.50;;;4.00;99.90;;;;;;5046967;28;20655;-76
2021/04/12 06:27:20;;;;;;;1.98;1.60;;;4.00;99.90;;;;;;5047290;28;20623;-77
2021/04/12 06:30:37;;;;;;;2.17;1.98;;;4.00;99.90;;;;;;5052162;28;20029;-76
2021/04/12 06:33:05;;;;;;;2.28;2.08;;;4.00;99.90;;;;;;5033130;28;20128;-76
2021/04/12 06:35:53;;;;;;;2.28;1.92;;;4.00;99.90;;;;;;5051844;28;20025;-77
2021/04/12 06:38:44;;;;;;;2.20;1.90;;;4.00;99.90;;;;;;5050623;28;20068;-76
2021/04/12 06:41:19;;;;;;;2.70;2.03;;;4.00;99.90;;;;;;5056105;28;20124;-77
2021/04/12 06:44:03;;;;;;;2.27;2.00;;;4.00;99.90;;;;;;5051280;28;20032;-76
2021/04/12 06:47:01;;;;;;;2.28;1.88;;;4.00;99.90;;;;;;5054885;28;20037;-77
2021/04/12 06:49:58;;;;;;;3.63;2.35;;;3.90;99.90;;;;;;5047872;28;20041;-76
2021/04/12 06:53:05;;;;;;;2.60;2.05;;;3.90;99.90;;;;;;5049880;28;20384;-77
2021/04/12 06:55:53;;;;;;;2.45;2.17;;;3.90;99.90;;;;;;5046378;28;20877;-76
2021/04/12 06:58:47;;;;;;;2.75;2.15;;;3.90;99.90;;;;;;5041095;28;20021;-76
2021/04/12 07:01:42;;;;;;;3.05;2.25;;;4.00;99.90;;;;;;5047166;28;20566;-76
2021/04/12 07:04:26;;;;;;;2.70;2.30;;;4.00;99.90;;;;;;5040777;28;20044;-76
2021/04/12 07:07:22;;;;;;;2.88;2.45;;;4.00;99.90;;;;;;5046122;28;20535;-76
2021/04/12 07:10:07;;;;;;;;;;;4.00;99.90;;;;;;5049387;28;20040;-75
2021/04/12 07:12:51;;;;;;;2.80;2.47;;;4.00;99.90;;;;;;5048850;28;20016;-76
2021/04/12 07:15:53;;;;;;;3.15;2.28;;;4.10;99.90;;;;;;5050502;28;20052;-76
2021/04/12 07:18:42;;;;;;;5.30;2.35;;;4.10;99.90;;;;;;5050079;28;20029;-76
2021/04/12 07:21:24;;;;;;;3.17;2.30;;;4.20;99.90;;;;;;5048935;28;20021;-76
2021/04/12 07:24:27;;;;;;;2.80;2.20;;;4.20;99.90;;;;;;5059958;28;20108;-76
2021/04/12 07:27:15;;;;;;;2.95;2.55;;;4.20;99.90;;;;;;5049831;28;20021;-76
2021/04/12 07:30:08;;;;;;;3.53;2.58;;;4.30;99.90;;;;;;5049445;28;20036;-75
2021/04/12 07:32:52;;;;;;;3.50;2.55;;;4.40;99.90;;;;;;5051192;28;20028;-76
2021/04/12 07:35:53;;;;;;;4.80;2.88;;;4.40;99.90;;;;;;5051185;28;20021;-77
2021/04/12 07:38:43;;;;;;;3.05;2.30;;;4.50;99.90;;;;;;5052592;28;20035;-76
2021/04/12 07:41:27;;;;;;;3.53;2.72;;;4.60;99.90;;;;;;5050493;28;20021;-77
2021/04/12 07:44:30;;;;;;;4.05;2.95;;;4.70;99.90;;;;;;5056885;28;20029;-76
2021/04/12 07:47:30;;;;;;;4.00;2.70;;;4.70;99.90;;;;;;5055274;28;20057;-77
2021/04/12 07:50:24;;;;;;;3.80;2.65;;;4.70;99.90;;;;;;5045986;28;20032;-77
2021/04/12 07:53:30;;;;;;;4.07;2.95;;;4.80;99.90;;;;;;5051559;28;20031;-77
2021/04/12 07:56:33;;;;;;;3.37;2.57;;;4.70;99.90;;;;;;5051423;28;20108;-77
2021/04/12 07:59:39;;;;;;;3.75;3.10;;;4.70;99.90;;;;;;5049749;28;20271;-77
2021/04/12 08:02:53;;;;;;;4.43;3.07;;;4.70;99.90;;;;;;5050536;28;20114;-76
2021/04/12 08:05:58;;;;;;;3.13;2.47;;;4.80;99.90;;;;;;5049416;28;20270;-77
2021/04/12 08:09:01;;;;;;;4.13;2.97;;;4.70;99.90;;;;;;5037213;28;20036;-75
2021/04/12 08:12:18;;;;;;;3.08;2.50;;;4.70;99.90;;;;;;5048591;28;20116;-76
2021/04/12 08:15:01;;;;;;;3.85;3.10;;;4.70;99.90;;;;;;4998348;28;20033;-76
2021/04/12 08:17:55;;;;;;;4.88;2.42;;;4.70;99.90;;;;;;5050057;28;20353;-77
2021/04/12 08:20:43;;;;;;;3.72;2.78;;;4.80;99.90;;;;;;5025880;28;20033;-75
2021/04/12 08:23:20;;;;;;;2.70;2.30;;;4.80;99.90;;;;;;5045808;28;20025;-76
2021/04/12 08:26:23;;;;;;;4.63;2.92;;;4.90;99.90;;;;;;5047815;28;20025;-77
2021/04/12 08:29:26;;;;;;;3.42;2.60;;;4.90;99.90;;;;;;5049024;28;20048;-82
2021/04/12 08:32:10;;;;;;;5.10;2.95;;;4.90;99.90;;;;;;5046683;28;20116;-76
2021/04/12 08:35:07;;;;;;;4.82;3.85;;;5.00;99.90;;;;;;5046871;28;20044;-75
2021/04/12 08:37:54;;;;;;;3.45;2.88;;;5.00;99.90;;;;;;5045520;28;20036;-77
2021/04/12 08:40:39;;;;;;;3.30;2.92;;;5.00;99.90;;;;;;5047705;28;20028;-77
2021/04/12 08:43:14;;;;;;;4.85;2.90;;;5.10;99.90;;;;;;5047668;28;20383;-77
2021/04/12 08:45:53;;;;;;;2.83;2.53;;;5.10;99.90;;;;;;5045949;28;20025;-77
2021/04/12 08:48:19;;;;;;;3.47;2.72;;;5.10;99.90;;;;;;5053960;28;20037;-76
2021/04/12 08:51:03;;;;;;;4.78;2.60;;;5.20;99.90;;;;;;5028855;28;20575;-78
2021/04/12 08:53:56;;;;;;;4.75;2.65;;;5.10;99.90;;;;;;5046778;28;20051;-77
2021/04/12 08:56:29;;;;;;;3.08;2.50;;;5.10;99.90;;;;;;5047759;28;20661;-77
2021/04/12 08:58:58;;;;;;;2.88;2.25;;;5.00;99.90;;;;;;5051772;28;20537;-77
2021/04/12 09:02:02;;;;;;;2.40;2.08;;;5.00;99.90;;;;;;5047771;28;20033;-77
2021/04/12 09:04:50;;;;;;;3.20;2.03;;;4.80;99.90;;;;;;5049136;28;20057;-77
2021/04/12 09:07:53;;;;;;;2.80;2.22;;;4.60;99.90;;;;;;5046638;28;20052;-76
2021/04/12 09:10:31;;;;;;;2.53;2.13;;;4.60;99.90;;;;;;5032948;28;20116;-77
2021/04/12 09:13:50;;;;;;;3.15;2.30;;;4.60;99.90;;;;;;5046555;28;20055;-77
2021/04/12 09:16:44;;;;;;;3.25;2.10;;;4.70;99.90;;;;;;4976805;28;20551;-76
2021/04/12 09:19:30;;;;;;;3.13;2.55;;;4.80;99.90;;;;;;5047956;28;20028;-77
2021/04/12 09:22:30;;;;;;;4.82;2.75;;;5.00;99.90;;;;;;5038802;28;20038;-77
2021/04/12 09:25:29;;;;;;;4.90;3.10;;;5.10;99.90;;;;;;5050091;28;20511;-78
2021/04/12 09:28:16;;;;;;;4.50;3.22;;;5.30;99.90;;;;;;5050241;28;20051;-76
2021/04/12 09:30:57;;;;;;;5.90;2.83;;;5.50;99.90;;;;;;5046948;28;20053;-76
2021/04/12 09:33:54;;;;;;;4.30;3.10;;;5.70;99.90;;;;;;5049591;28;20040;-77
2021/04/12 09:36:36;;;;;;;6.30;3.13;;;5.80;99.90;;;;;;5047235;28;20033;-77
2021/04/12 09:39:22;;;;;;;3.92;2.72;;;5.90;99.90;;;;;;5046806;28;20033;-77
2021/04/12 09:42:03;;;;;;;3.10;2.80;;;6.10;99.90;;;;;;5045395;28;20044;-77
2021/04/12 09:45:10;;;;;;;3.53;2.92;;;6.20;99.90;;;;;;5049290;28;20032;-77
2021/04/12 09:47:39;;;;;;;3.83;3.10;;;6.20;99.90;;;;;;5048149;28;20537;-77
2021/04/12 09:50:24;;;;;;;3.08;2.72;;;6.20;99.90;;;;;;5047821;28;20559;-77
2021/04/12 09:53:14;;;;;;;3.33;2.78;;;6.30;99.90;;;;;;5048452;28;20025;-77
2021/04/12 09:56:10;;;;;;;4.22;3.15;;;6.20;99.90;;;;;;5049774;28;20029;-77
2021/04/12 09:58:54;;;;;;;;;;;6.10;99.90;;;;;;5052441;28;20100;-77
2021/04/12 10:02:02;;;;;;;3.70;2.67;;;6.00;99.90;;;;;;5049595;28;19930;-77
2021/04/12 10:04:52;;;;;;;3.00;2.50;;;5.90;99.90;;;;;;5051993;28;20480;-77
2021/04/12 10:07:36;;;;;;;3.17;2.50;;;5.90;99.90;;;;;;5052357;28;21256;-77
2021/04/12 10:10:16;;;;;;;4.05;2.92;;;5.90;99.90;;;;;;5052458;28;20464;-77
2021/04/12 10:13:02;;;;;;;2.92;2.20;;;6.00;99.90;;;;;;5051110;28;20064;-77
2021/04/12 10:15:43;;;;;;;3.40;2.50;;;6.10;99.90;;;;;;5052338;28;20021;-77
2021/04/12 10:18:23;;;;;;;5.13;2.38;;;6.20;99.90;;;;;;5045443;28;20023;-77
2021/04/12 10:20:52;;;;;;;3.20;2.40;;;6.30;99.90;;;;;;5051334;28;20156;-77
2021/04/12 10:23:33;;;;;;;2.80;2.50;;;6.40;99.90;;;;;;5051439;28;20125;-77
2021/04/12 10:26:14;;;;;;;3.80;2.53;;;6.50;99.90;;;;;;5051243;28;20029;-77
2021/04/12 10:29:00;;;;;;;2.40;2.00;;;6.60;99.90;;;;;;5042014;28;20604;-78
2021/04/12 10:31:48;;;;;;;4.80;3.35;;;6.50;99.90;;;;;;5049199;28;20036;-77
2021/04/12 10:34:22;;;;;;;3.65;2.75;;;6.60;99.90;;;;;;5047918;28;20036;-77
2021/04/12 10:37:26;;;;;;;4.15;2.75;;;6.60;99.90;;;;;;5050879;28;20025;-78
2021/04/12 10:40:10;;;;;;;3.83;2.58;;;6.60;99.90;;;;;;5031533;28;20041;-77
2021/04/12 10:42:47;;;;;;;3.22;2.67;;;6.60;99.90;;;;;;5046148;28;20068;-78
2021/04/12 10:45:23;;;;;;;4.55;2.72;;;6.60;99.90;;;;;;5050957;28;20364;-77
2021/04/12 10:47:55;;;;;;;;;;;6.50;99.90;;;;;;5045430;28;20030;-77
2021/04/12 10:50:46;;;;;;;4.30;2.92;;;6.50;99.90;;;;;;5051274;28;20711;-77
2021/04/12 10:53:36;;;;;;;4.03;2.90;;;6.40;99.90;;;;;;5041633;28;20056;-77
2021/04/12 10:56:10;;;;;;;3.15;2.67;;;6.50;99.90;;;;;;5049130;28;20037;-77
2021/04/12 10:58:55;;;;;;;3.67;2.40;;;6.50;99.90;;;;;;5047962;28;20029;-77
2021/04/12 11:01:36;;;;;;;3.13;2.22;;;6.70;99.90;;;;;;5049498;28;20021;-77
2021/04/12 11:04:18;;;;;;;2.65;2.03;;;6.80;99.90;;;;;;5049499;28;20025;-77
2021/04/12 11:07:03;;;;;;;3.50;2.05;;;6.80;99.90;;;;;;5045263;28;20091;-77
2021/04/12 11:09:57;;;;;;;2.97;2.13;;;6.90;99.90;;;;;;5050332;28;21395;-77
2021/04/12 11:12:52;;;;;;;3.60;2.40;;;7.00;99.90;;;;;;5048364;28;20029;-77
2021/04/12 11:15:21;;;;;;;2.13;1.92;;;7.20;99.90;;;;;;5049225;28;20051;-76
2021/04/12 11:17:55;;;;;;;1.75;1.50;;;7.20;99.90;;;;;;5047600;28;20071;-77
2021/04/12 11:20:31;;;;;;;2.10;1.88;;;7.10;99.90;;;;;;5046921;28;20045;-77
2021/04/12 11:23:10;;;;;;;1.70;1.60;;;6.90;99.90;;;;;;5049381;28;20029;-77
2021/04/12 11:26:02;;;;;;;2.10;1.80;;;6.90;99.90;;;;;;5043392;28;20048;-77
2021/04/12 11:28:52;;;;;;;2.33;1.70;;;7.00;99.90;;;;;;5039424;28;20056;-77
2021/04/12 11:31:33;;;;;;;1.95;1.65;;;7.00;99.90;;;;;;5047422;28;20426;-77
2021/04/12 11:34:32;;;;;;;1.60;1.33;;;7.00;99.90;;;;;;5051663;28;20038;-77
2021/04/12 11:37:19;;;;;;;1.95;1.73;;;7.00;99.90;;;;;;5049735;28;20602;-77
2021/04/12 11:39:56;;;;;;;1.63;1.30;;;7.00;99.90;;;;;;5048494;28;20107;-76
2021/04/12 11:42:28;;;;;;;1.60;1.50;;;7.00;99.90;;;;;;5047314;28;20048;-76
2021/04/12 11:45:04;;;;;;;2.95;1.75;;;7.00;99.90;;;;;;5047168;28;20052;-77
2021/04/12 11:47:49;;;;;;;1.83;1.70;;;7.10;99.90;;;;;;5044524;28;20073;-77
2021/04/12 11:50:30;;;;;;;2.22;1.30;;;6.90;99.90;;;;;;5047512;28;20029;-76
2021/04/12 11:53:15;;;;;;;3.33;1.60;;;6.80;99.90;;;;;;5048113;28;20136;-76
2021/04/12 11:56:07;;;;;;;1.60;1.50;;;6.60;99.90;;;;;;5040774;28;20036;-76
2021/04/12 11:58:46;;;;;;;2.33;1.30;;;6.50;99.90;;;;;;5051484;28;20187;-77
2021/04/12 12:01:36;;;;;;;1.98;1.23;;;6.40;99.90;;;;;;5043246;28;20055;-77
2021/04/12 12:04:33;;;;;;;1.55;1.20;;;6.40;99.90;;;;;;5041490;28;20033;-76
2021/04/12 12:07:40;;;;;;;1.77;1.40;;;6.50;99.90;;;;;;5052215;28;20028;-76
2021/04/12 12:10:06;;;;;;;;;;;6.70;99.90;;;;;;5040710;28;20021;-77
2021/04/12 12:12:50;;;;;;;;;;;6.80;99.90;;;;;;5044557;28;19928;-77
2021/04/12 12:15:21;;;;;;;1.70;1.58;;;6.90;99.90;;;;;;5043852;28;19916;-77
2021/04/12 12:17:59;;;;;;;1.42;1.33;;;7.00;99.90;;;;;;5029119;28;20026;-77
2021/04/12 12:20:45;;;;;;;2.97;1.70;;;7.10;99.90;;;;;;5045355;28;20147;-77
2021/04/12 12:23:43;;;;;;;3.45;1.40;;;7.00;99.90;;;;;;5045883;28;20032;-77
2021/04/12 12:26:36;;;;;;;1.50;1.40;;;6.80;99.90;;;;;;5042593;28;20021;-75
2021/04/12 12:29:07;;;;;;;2.40;1.60;;;6.70;99.90;;;;;;5045745;28;20033;-76
2021/04/12 12:31:39;;;;;;;1.63;1.52;;;6.50;99.90;;;;;;5045621;28;20028;-76
2021/04/12 12:34:08;;;;;;;2.00;1.45;;;6.50;99.90;;;;;;5035221;28;20153;-77
2021/04/12 12:36:40;;;;;;;2.33;1.85;;;6.40;99.90;;;;;;5045483;28;20029;-77
2021/04/12 12:39:36;;;;;;;1.85;1.38;;;6.40;99.90;;;;;;5043953;28;20028;-76
2021/04/12 12:42:09;;;;;;;4.63;1.70;;;6.30;99.90;;;;;;5055802;28;20428;-78
2021/04/12 12:44:35;;;;;;;1.45;1.35;;;6.30;99.90;;;;;;5039286;28;20048;-75
2021/04/12 12:47:12;;;;;;;1.80;1.35;;;6.30;99.90;;;;;;5044434;28;20060;-76
2021/04/12 12:49:48;;;;;;;1.50;1.38;;;6.40;99.90;;;;;;5045640;28;20039;-77
2021/04/12 12:52:25;;;;;;;2.25;1.50;;;6.50;99.90;;;;;;5041913;28;20111;-75
2021/04/12 12:54:54;;;;;;;2.42;1.58;;;6.60;99.90;;;;;;5042491;28;20032;-76
2021/04/12 12:57:25;;;;;;;1.40;1.30;;;6.60;99.90;;;;;;5043564;28;20667;-76
2021/04/12 12:59:56;;;;;;;2.28;1.10;;;6.60;99.90;;;;;;5033001;28;20021;-75
2021/04/12 13:02:25;;;;;;;3.70;1.85;;;6.60;99.90;;;;;;5058168;28;20036;-76
2021/04/12 13:05:07;;;;;;;2.33;1.50;;;6.40;99.90;;;;;;5041326;28;20118;-76
2021/04/12 13:07:34;;;;;;;2.55;1.88;;;6.20;99.90;;;;;;5027005;28;20119;-76
2021/04/12 13:10:16;;;;;;;1.70;1.38;;;6.10;99.90;;;;;;5041737;28;20037;-74
2021/04/12 13:12:44;;;;;;;2.30;1.65;;;6.10;99.90;;;;;;5037219;28;20846;-73
2021/04/12 13:15:25;;;;;;;1.73;1.50;;;6.10;99.90;;;;;;5048485;28;20573;-74
2021/04/12 13:17:52;;;;;;;1.50;1.40;;;6.20;99.90;;;;;;5039434;28;20029;-73
2021/04/12 13:20:30;;;;;;;1.45;1.20;;;6.30;99.90;;;;;;5034141;28;20023;-74
2021/04/12 13:23:12;;;;;;;1.70;1.42;;;6.30;99.90;;;;;;5041918;28;20111;-73
2021/04/12 13:25:42;;;;;;;1.10;0.95;;;6.30;99.90;;;;;;5043949;28;20133;-73
2021/04/12 13:28:15;;;;;;;1.30;1.05;;;6.30;99.90;;;;;;5049395;28;20163;-73
2021/04/12 13:30:49;;;;;;;1.42;1.25;;;6.30;99.90;;;;;;5046324;28;20024;-73
2021/04/12 13:33:35;;;;;;;1.20;1.10;;;6.30;99.90;;;;;;5049547;28;20179;-73
2021/04/12 13:36:21;;;;;;;;;;;6.40;99.90;;;;;;5046765;28;20632;-73
2021/04/12 13:38:51;;;;;;;2.78;1.05;;;6.50;99.90;;;;;;5045598;28;19920;-73
2021/04/12 13:41:27;;;;;;;1.00;0.90;;;6.60;99.90;;;;;;5045447;28;20037;-73
2021/04/12 13:44:18;;;;;;;2.45;1.05;;;6.60;99.90;;;;;;5045510;28;20116;-73
2021/04/12 13:47:06;;;;;;;4.45;1.15;;;6.60;99.90;;;;;;5042610;28;20480;-73
2021/04/12 13:49:42;;;;;;;1.10;1.00;;;6.70;99.90;;;;;;5042743;28;20116;-73
2021/04/12 13:52:21;;;;;;;0.80;0.80;;;6.70;99.90;;;;;;5045248;28;20080;-73
2021/04/12 13:55:09;;;;;;;0.70;0.70;;;6.60;99.90;;;;;;5045092;28;20103;-73
2021/04/12 13:57:48;;;;;;;1.20;1.10;;;6.60;99.90;;;;;;5046684;28;20100;-73
2021/04/12 14:00:22;;;;;;;3.15;1.10;;;6.50;99.90;;;;;;5044160;28;20550;-73
2021/04/12 14:03:21;;;;;;;1.27;0.80;;;6.50;99.90;;;;;;5045034;28;20031;-73
2021/04/12 14:05:56;;;;;;;1.38;0.80;;;6.40;99.90;;;;;;5022303;28;20403;-73
2021/04/12 14:08:24;;;;;;;2.47;1.00;;;6.40;99.90;;;;;;5044786;28;20025;-73
2021/04/12 14:10:58;;;;;;;3.42;1.02;;;6.40;99.90;;;;;;5046396;28;20053;-73
2021/04/12 14:13:43;;;;;;;1.30;1.00;;;6.40;99.90;;;;;;5047346;28;20071;-72
2021/04/12 14:16:27;;;;;;;1.20;0.98;;;6.50;99.90;;;;;;5041398;28;20468;-72
2021/04/12 14:19:05;;;;;;;0.93;0.70;;;6.60;99.90;;;;;;5046490;28;20025;-73
2021/04/12 14:21:37;;;;;;;1.67;0.68;;;6.80;99.90;;;;;;5047691;28;20400;-73
2021/04/12 14:24:12;;;;;;;1.05;0.90;;;7.00;99.90;;;;;;5047704;28;20079;-72
2021/04/12 14:26:43;;;;;;;1.42;0.93;;;7.10;99.90;;;;;;5045389;28;20017;-72
2021/04/12 14:29:30;;;;;;;1.75;0.80;;;7.20;99.90;;;;;;5048921;28;20082;-73
2021/04/12 14:32:20;;;;;;;0.70;0.68;;;7.30;99.90;;;;;;5045727;28;20029;-72
2021/04/12 14:34:55;;;;;;;0.60;0.50;;;7.30;99.90;;;;;;5047585;28;20123;-72
2021/04/12 14:37:31;;;;;;;0.52;0.50;;;7.40;99.90;;;;;;5043064;28;20018;-73
2021/04/12 14:40:40;;;;;;;0.57;0.57;;;7.30;99.90;;;;;;5045274;28;20045;-73